Time;durP1;ratioP1;P1;durP2;ratioP2;P2;SDS_P1;SDS_P2;PMS_P1;PMS_P2;Temp;Humidity;BMP_temperature;BMP_pressure;BME280_temperature;BME280_humidity;BME280_pressure;Samples;Min_cycle;Max_cycle;Signal;HPM_P1;HPM_P2
2022/11/04 00:01:41;;;;;;;0.40;0.40;;;;;;;;;;5006164;28;20463;-69
2022/11/04 00:04:08;;;;;;;0.40;0.40;;;;;;;;;;5009257;28;20456;-69
2022/11/04 00:06:34;;;;;;;0.60;0.60;;;;;;;;;;5005422;28;20912;-69
2022/11/04 00:09:00;;;;;;;0.60;0.60;;;;;;;;;;5009564;28;20842;-69
2022/11/04 00:14:11;;;;;;;0.57;0.50;;;;;;;;;;5010575;28;20423;-70
2022/11/04 00:19:22;;;;;;;0.40;0.40;;;;;;;;;;5007148;28;20423;-69
2022/11/04 00:29:56;;;;;;;0.70;0.50;;;;;;;;;;5010901;28;21069;-69
2022/11/04 00:35:08;;;;;;;0.50;0.50;;;;;;;;;;5005344;28;20461;-69
2022/11/04 00:37:38;;;;;;;0.50;0.50;;;;;;;;;;5007483;28;20437;-69
2022/11/04 00:40:05;;;;;;;0.73;0.50;;;;;;;;;;5008571;28;20432;-69
2022/11/04 00:42:30;;;;;;;4.10;0.67;;;;;;;;;;5010130;28;20435;-69
2022/11/04 00:44:56;;;;;;;0.87;0.47;;;;;;;;;;5010161;28;20461;-69
2022/11/04 00:47:22;;;;;;;0.60;0.60;;;;;;;;;;5010649;28;20475;-69
2022/11/04 00:49:48;;;;;;;0.40;0.40;;;;;;;;;;5007696;28;20968;-69
2022/11/04 00:52:14;;;;;;;0.50;0.50;;;;;;;;;;5005893;28;21004;-69
2022/11/04 00:54:40;;;;;;;2.50;0.53;;;;;;;;;;5009970;28;20908;-69
2022/11/04 00:57:09;;;;;;;0.53;0.53;;;;;;;;;;5009447;28;20459;-69
2022/11/04 00:59:35;;;;;;;0.47;0.47;;;;;;;;;;5007799;28;20486;-69
2022/11/04 01:02:00;;;;;;;0.60;0.60;;;;;;;;;;5008854;28;21011;-69
2022/11/04 01:04:26;;;;;;;0.50;0.50;;;;;;;;;;5009623;28;20438;-69
2022/11/04 01:06:52;;;;;;;0.50;0.50;;;;;;;;;;5007499;28;20530;-69
2022/11/04 01:09:19;;;;;;;0.40;0.40;;;;;;;;;;5006969;28;20799;-69
2022/11/04 01:11:45;;;;;;;0.80;0.80;;;;;;;;;;5009676;28;20476;-69
2022/11/04 01:14:11;;;;;;;0.63;0.63;;;;;;;;;;5006399;28;20443;-70
2022/11/04 01:16:37;;;;;;;0.77;0.60;;;;;;;;;;5007040;28;20460;-70
2022/11/04 01:19:03;;;;;;;2.97;0.50;;;;;;;;;;5007882;28;20436;-69
2022/11/04 01:21:30;;;;;;;0.63;0.30;;;;;;;;;;5009816;28;20510;-69
2022/11/04 01:23:56;;;;;;;1.43;0.53;;;;;;;;;;5006717;28;20474;-68
2022/11/04 01:26:23;;;;;;;0.83;0.40;;;;;;;;;;5008638;28;20432;-69
2022/11/04 01:28:49;;;;;;;0.40;0.40;;;;;;;;;;5005278;28;20523;-70
2022/11/04 01:31:16;;;;;;;0.40;0.40;;;;;;;;;;5010009;28;20482;-70
2022/11/04 01:33:42;;;;;;;0.50;0.50;;;;;;;;;;5007722;28;20429;-70
2022/11/04 01:36:09;;;;;;;0.40;0.40;;;;;;;;;;5006294;28;20835;-69
2022/11/04 01:38:35;;;;;;;3.47;0.57;;;;;;;;;;5006487;28;20436;-69
2022/11/04 01:41:02;;;;;;;0.43;0.43;;;;;;;;;;5007233;28;20443;-70
2022/11/04 01:43:42;;;;;;;0.70;0.70;;;;;;;;;;5006943;28;20932;-69
2022/11/04 01:46:10;;;;;;;0.40;0.40;;;;;;;;;;5006990;28;20432;-69
2022/11/04 01:48:36;;;;;;;0.40;0.40;;;;;;;;;;5006808;28;20440;-70
2022/11/04 01:51:03;;;;;;;0.60;0.60;;;;;;;;;;5008859;28;20963;-69
2022/11/04 01:53:34;;;;;;;0.77;0.50;;;;;;;;;;5008731;28;20791;-70
2022/11/04 01:56:03;;;;;;;0.60;0.50;;;;;;;;;;5004354;28;20602;-70
2022/11/04 01:58:30;;;;;;;0.50;0.50;;;;;;;;;;5007862;28;20574;-69
2022/11/04 02:00:56;;;;;;;1.10;0.50;;;;;;;;;;5007366;28;20436;-69
2022/11/04 02:03:28;;;;;;;0.50;0.50;;;;;;;;;;5007352;28;20443;-69
2022/11/04 02:05:54;;;;;;;0.57;0.57;;;;;;;;;;5006340;28;20956;-70
2022/11/04 02:08:20;;;;;;;0.93;0.93;;;;;;;;;;5005144;28;20519;-69
2022/11/04 02:10:57;;;;;;;0.80;0.80;;;;;;;;;;5006728;28;20562;-69
2022/11/04 02:13:23;;;;;;;0.50;0.40;;;;;;;;;;5006339;28;20911;-69
2022/11/04 02:15:55;;;;;;;0.63;0.40;;;;;;;;;;5006870;28;20437;-69
2022/11/04 02:18:45;;;;;;;0.83;0.60;;;;;;;;;;5006224;28;20454;-70
2022/11/04 02:21:19;;;;;;;0.43;0.43;;;;;;;;;;4970673;28;20436;-69
2022/11/04 02:23:54;;;;;;;0.30;0.30;;;;;;;;;;5005082;28;20490;-70
2022/11/04 02:26:50;;;;;;;0.43;0.43;;;;;;;;;;5008094;28;20531;-70
2022/11/04 02:29:36;;;;;;;1.03;0.50;;;;;;;;;;5009668;28;20424;-69
2022/11/04 02:32:11;;;;;;;0.50;0.50;;;;;;;;;;5011047;28;20490;-70
2022/11/04 02:34:50;;;;;;;0.50;0.50;;;;;;;;;;5009477;28;20450;-69
2022/11/04 02:37:24;;;;;;;0.60;0.60;;;;;;;;;;5011087;28;20442;-69
2022/11/04 02:39:50;;;;;;;3.23;0.90;;;;;;;;;;5010651;28;20521;-69
2022/11/04 02:42:27;;;;;;;0.43;0.43;;;;;;;;;;5009510;28;20725;-70
2022/11/04 02:45:07;;;;;;;6.73;0.70;;;;;;;;;;5010437;28;20523;-69
2022/11/04 02:47:37;;;;;;;1.50;0.57;;;;;;;;;;5009070;28;20685;-69
2022/11/04 02:50:03;;;;;;;0.50;0.50;;;;;;;;;;5010231;28;20443;-69
2022/11/04 02:52:48;;;;;;;2.20;0.50;;;;;;;;;;5010797;28;20487;-69
2022/11/04 02:55:21;;;;;;;0.83;0.83;;;;;;;;;;5006248;28;20428;-69
2022/11/04 02:57:48;;;;;;;0.50;0.50;;;;;;;;;;5009261;28;21014;-69
2022/11/04 03:00:14;;;;;;;0.60;0.60;;;;;;;;;;5007352;28;20464;-69
2022/11/04 03:02:42;;;;;;;1.73;1.63;;;;;;;;;;5005199;28;20444;-70
2022/11/04 03:05:13;;;;;;;0.60;0.60;;;;;;;;;;5006610;28;20428;-69
2022/11/04 03:07:40;;;;;;;2.00;0.70;;;;;;;;;;5007882;28;21075;-68
2022/11/04 03:10:10;;;;;;;2.67;0.60;;;;;;;;;;5010034;28;20468;-69
2022/11/04 03:12:39;;;;;;;1.10;0.40;;;;;;;;;;5011752;28;20487;-71
2022/11/04 03:15:09;;;;;;;1.40;0.50;;;;;;;;;;5010564;28;20432;-69
2022/11/04 03:17:55;;;;;;;2.10;0.70;;;;;;;;;;5010353;28;20419;-69
2022/11/04 03:20:23;;;;;;;0.87;0.87;;;;;;;;;;5010396;28;20438;-69
2022/11/04 03:22:49;;;;;;;1.10;0.87;;;;;;;;;;5006939;28;20435;-69
2022/11/04 03:25:15;;;;;;;0.87;0.50;;;;;;;;;;5004682;28;20427;-69
2022/11/04 03:27:48;;;;;;;0.40;0.40;;;;;;;;;;5005012;28;20436;-68
2022/11/04 03:30:18;;;;;;;2.53;0.57;;;;;;;;;;5009705;28;20516;-69
2022/11/04 03:32:57;;;;;;;0.80;0.50;;;;;;;;;;5007344;28;20488;-69
2022/11/04 03:35:23;;;;;;;6.17;0.80;;;;;;;;;;5008804;28;20863;-69
2022/11/04 03:37:49;;;;;;;0.43;0.43;;;;;;;;;;5007407;28;20459;-69
2022/11/04 03:40:16;;;;;;;0.57;0.57;;;;;;;;;;5006269;28;20796;-69
2022/11/04 03:43:02;;;;;;;1.17;0.83;;;;;;;;;;5006846;28;20468;-69
2022/11/04 03:45:28;;;;;;;0.87;0.60;;;;;;;;;;4991660;28;20534;-70
2022/11/04 03:47:55;;;;;;;0.50;0.50;;;;;;;;;;5008349;28;20515;-70
2022/11/04 03:50:32;;;;;;;1.70;0.50;;;;;;;;;;5008406;28;20436;-69
2022/11/04 03:52:58;;;;;;;0.57;0.57;;;;;;;;;;5006820;28;20451;-69
2022/11/04 03:55:28;;;;;;;4.30;0.90;;;;;;;;;;5006481;28;20513;-69
2022/11/04 03:57:57;;;;;;;0.70;0.60;;;;;;;;;;5007050;28;20440;-69
2022/11/04 04:00:23;;;;;;;0.70;0.70;;;;;;;;;;5008029;28;20987;-69
2022/11/04 04:02:59;;;;;;;0.40;0.40;;;;;;;;;;5009880;28;20447;-70
2022/11/04 04:05:33;;;;;;;0.40;0.40;;;;;;;;;;5006623;28;20789;-70
2022/11/04 04:07:59;;;;;;;0.70;0.70;;;;;;;;;;5007651;28;20541;-69
2022/11/04 04:10:39;;;;;;;0.60;0.40;;;;;;;;;;5007176;28;20446;-69
2022/11/04 04:13:17;;;;;;;0.40;0.40;;;;;;;;;;5008497;28;20448;-69
2022/11/04 04:15:52;;;;;;;0.90;0.43;;;;;;;;;;5008081;28;20443;-68
2022/11/04 04:18:23;;;;;;;0.50;0.50;;;;;;;;;;5008784;28;20462;-70
2022/11/04 04:20:51;;;;;;;4.93;0.40;;;;;;;;;;5008539;28;20498;-69
2022/11/04 04:28:52;;;;;;;2.30;0.60;;;;;;;;;;5007186;28;20436;-70
2022/11/04 04:34:04;;;;;;;2.10;0.70;;;;;;;;;;5008418;28;20416;-70
2022/11/04 04:36:39;;;;;;;4.20;0.60;;;;;;;;;;5008103;28;21063;-69
2022/11/04 04:45:00;;;;;;;0.40;0.40;;;;;;;;;;5009537;28;20431;-69
2022/11/04 04:47:28;;;;;;;0.83;0.50;;;;;;;;;;5007051;28;20800;-68
2022/11/04 04:49:55;;;;;;;1.00;0.60;;;;;;;;;;5007477;28;20467;-69
2022/11/04 04:52:22;;;;;;;0.83;0.40;;;;;;;;;;5006821;28;20479;-70
2022/11/04 04:54:48;;;;;;;1.70;0.37;;;;;;;;;;5001214;28;20471;-70
2022/11/04 04:57:14;;;;;;;1.40;0.50;;;;;;;;;;5004646;28;20440;-69
2022/11/04 04:59:40;;;;;;;1.53;0.60;;;;;;;;;;5007599;28;20573;-69
2022/11/04 05:02:06;;;;;;;1.47;0.67;;;;;;;;;;5007007;28;21894;-70
2022/11/04 05:04:32;;;;;;;0.60;0.60;;;;;;;;;;5006894;28;20424;-69
2022/11/04 05:06:58;;;;;;;1.00;1.00;;;;;;;;;;5008524;28;20488;-70
2022/11/04 05:09:24;;;;;;;0.90;0.80;;;;;;;;;;5007187;28;20483;-69
2022/11/04 05:11:50;;;;;;;0.50;0.50;;;;;;;;;;5006989;28;20489;-70
2022/11/04 05:14:16;;;;;;;3.40;0.50;;;;;;;;;;5009487;28;20444;-70
2022/11/04 05:16:42;;;;;;;1.00;0.57;;;;;;;;;;5007716;28;20446;-70
2022/11/04 05:19:08;;;;;;;0.80;0.50;;;;;;;;;;5008497;28;20432;-70
2022/11/04 05:21:34;;;;;;;0.57;0.57;;;;;;;;;;5008809;28;20419;-69
2022/11/04 05:24:00;;;;;;;0.60;0.50;;;;;;;;;;5008316;28;20444;-69
2022/11/04 05:26:26;;;;;;;0.60;0.60;;;;;;;;;;5007584;28;20439;-70
2022/11/04 05:28:52;;;;;;;0.63;0.63;;;;;;;;;;5006939;28;20924;-69
2022/11/04 05:31:18;;;;;;;0.60;0.60;;;;;;;;;;5004185;28;20833;-70
2022/11/04 05:33:44;;;;;;;3.13;0.70;;;;;;;;;;5005382;28;20449;-70
2022/11/04 05:36:14;;;;;;;2.47;1.40;;;;;;;;;;5006371;28;20983;-69
2022/11/04 05:38:40;;;;;;;1.20;0.60;;;;;;;;;;5006431;28;20444;-70
2022/11/04 05:41:07;;;;;;;0.60;0.60;;;;;;;;;;5009595;28;20523;-70
2022/11/04 05:43:33;;;;;;;1.70;0.50;;;;;;;;;;5009508;28;20428;-69
2022/11/04 05:45:59;;;;;;;2.43;0.43;;;;;;;;;;5008897;28;20427;-69
2022/11/04 05:48:26;;;;;;;0.30;0.30;;;;;;;;;;5009538;28;20484;-69
2022/11/04 05:50:52;;;;;;;0.90;0.60;;;;;;;;;;5005172;28;20468;-69
2022/11/04 05:53:18;;;;;;;1.27;0.60;;;;;;;;;;5006657;28;20436;-71
2022/11/04 05:55:44;;;;;;;0.50;0.40;;;;;;;;;;5007644;28;20515;-69
2022/11/04 05:58:10;;;;;;;1.37;0.40;;;;;;;;;;5005269;28;20932;-69
2022/11/04 06:00:36;;;;;;;0.60;0.60;;;;;;;;;;5004800;28;20445;-70
2022/11/04 06:03:02;;;;;;;1.10;0.60;;;;;;;;;;5007253;28;20450;-70
2022/11/04 06:05:29;;;;;;;0.60;0.60;;;;;;;;;;5011372;28;20444;-69
2022/11/04 06:07:55;;;;;;;1.30;0.40;;;;;;;;;;5010437;28;20516;-70
2022/11/04 06:10:22;;;;;;;0.83;0.57;;;;;;;;;;5010866;28;20844;-69
2022/11/04 06:12:48;;;;;;;0.60;0.57;;;;;;;;;;5002636;28;20495;-70
2022/11/04 06:15:14;;;;;;;1.20;1.13;;;;;;;;;;5009937;28;20785;-68
2022/11/04 06:17:40;;;;;;;1.07;0.70;;;;;;;;;;5011417;28;20444;-69
2022/11/04 06:20:06;;;;;;;0.40;0.40;;;;;;;;;;5010177;28;20924;-70
2022/11/04 06:22:32;;;;;;;3.50;1.37;;;;;;;;;;5012112;28;20436;-68
2022/11/04 06:24:58;;;;;;;1.13;1.13;;;;;;;;;;5007874;28;20436;-69
2022/11/04 06:27:24;;;;;;;1.40;0.70;;;;;;;;;;5011757;28;20574;-70
2022/11/04 06:29:51;;;;;;;0.60;0.60;;;;;;;;;;5009945;28;20440;-70
2022/11/04 06:32:18;;;;;;;1.80;1.67;;;;;;;;;;5005611;28;20608;-69
2022/11/04 06:34:44;;;;;;;1.80;1.50;;;;;;;;;;5011271;28;20424;-68
2022/11/04 06:37:10;;;;;;;1.40;1.40;;;;;;;;;;5011856;28;21099;-69
2022/11/04 06:39:37;;;;;;;1.07;1.07;;;;;;;;;;5011315;28;20519;-69
2022/11/04 06:42:03;;;;;;;0.87;0.87;;;;;;;;;;5007419;28;20810;-69
2022/11/04 06:44:29;;;;;;;2.70;0.87;;;;;;;;;;5000629;28;20429;-70
2022/11/04 06:46:55;;;;;;;0.90;0.60;;;;;;;;;;5005731;28;20455;-68
2022/11/04 06:49:22;;;;;;;0.90;0.90;;;;;;;;;;5006695;28;20432;-69
2022/11/04 06:51:48;;;;;;;1.37;1.30;;;;;;;;;;5004001;28;20495;-69
2022/11/04 06:54:14;;;;;;;0.77;0.70;;;;;;;;;;5006903;28;20436;-70
2022/11/04 06:56:41;;;;;;;3.30;1.17;;;;;;;;;;4913583;28;20596;-69
2022/11/04 06:59:07;;;;;;;2.43;1.00;;;;;;;;;;4987354;28;20455;-69
2022/11/04 07:01:35;;;;;;;8.43;1.30;;;;;;;;;;4987092;28;20804;-69
2022/11/04 07:04:02;;;;;;;6.93;2.90;;;;;;;;;;4981693;28;20441;-68
2022/11/04 07:06:28;;;;;;;3.97;2.30;;;;;;;;;;4991309;28;20567;-68
2022/11/04 07:08:56;;;;;;;1.70;1.20;;;;;;;;;;4991434;28;20428;-68
2022/11/04 07:11:23;;;;;;;1.13;0.90;;;;;;;;;;4992302;28;20492;-68
2022/11/04 07:13:49;;;;;;;0.57;0.57;;;;;;;;;;4990801;28;20444;-68
2022/11/04 07:16:16;;;;;;;2.13;0.50;;;;;;;;;;4991199;28;20523;-68
2022/11/04 07:18:42;;;;;;;1.80;1.10;;;;;;;;;;4992773;28;20413;-69
2022/11/04 07:21:08;;;;;;;0.60;0.60;;;;;;;;;;4989783;28;20431;-69
2022/11/04 07:23:34;;;;;;;1.23;0.93;;;;;;;;;;4988194;28;20437;-69
2022/11/04 07:26:01;;;;;;;4.63;1.07;;;;;;;;;;4990289;28;20813;-68
2022/11/04 07:28:27;;;;;;;4.00;2.67;;;;;;;;;;4990077;28;20671;-68
2022/11/04 07:30:57;;;;;;;2.60;1.37;;;;;;;;;;4990800;28;20452;-71
2022/11/04 07:33:23;;;;;;;0.83;0.83;;;;;;;;;;4983492;28;20453;-69
2022/11/04 07:35:49;;;;;;;0.93;0.80;;;;;;;;;;4984562;28;20436;-69
2022/11/04 07:38:15;;;;;;;5.93;2.30;;;;;;;;;;4991684;28;20425;-69
2022/11/04 07:40:41;;;;;;;1.00;1.00;;;;;;;;;;4992162;28;20421;-68
2022/11/04 07:43:07;;;;;;;8.97;1.97;;;;;;;;;;4988594;28;20503;-68
2022/11/04 07:45:33;;;;;;;1.50;1.47;;;;;;;;;;4990945;28;20512;-69
2022/11/04 07:47:59;;;;;;;1.40;0.87;;;;;;;;;;4991902;28;20413;-69
2022/11/04 07:50:25;;;;;;;0.73;0.73;;;;;;;;;;4991763;28;20429;-68
2022/11/04 07:52:51;;;;;;;3.53;0.90;;;;;;;;;;4991681;28;21001;-69
2022/11/04 07:55:18;;;;;;;2.37;0.97;;;;;;;;;;4990194;28;20437;-69
2022/11/04 07:57:44;;;;;;;2.47;0.90;;;;;;;;;;4990959;28;20436;-69
2022/11/04 08:00:11;;;;;;;0.87;0.87;;;;;;;;;;4991584;28;20782;-70
2022/11/04 08:02:37;;;;;;;0.80;0.70;;;;;;;;;;4991810;28;20436;-70
2022/11/04 08:05:05;;;;;;;2.67;1.30;;;;;;;;;;4991826;28;20418;-69
2022/11/04 08:07:31;;;;;;;3.07;2.13;;;;;;;;;;4987370;28;20473;-70
2022/11/04 08:09:57;;;;;;;1.87;1.23;;;;;;;;;;4987560;28;20448;-70
2022/11/04 08:12:23;;;;;;;1.17;1.17;;;;;;;;;;4991133;28;20488;-71
2022/11/04 08:14:49;;;;;;;1.03;0.90;;;;;;;;;;4990514;28;20448;-69
2022/11/04 08:17:16;;;;;;;3.00;1.20;;;;;;;;;;4991694;28;20437;-69
2022/11/04 08:19:41;;;;;;;1.10;1.10;;;;;;;;;;4991146;28;20922;-69
2022/11/04 08:22:07;;;;;;;1.20;1.03;;;;;;;;;;4990316;28;20435;-70
2022/11/04 08:24:34;;;;;;;2.50;1.00;;;;;;;;;;4990781;28;20922;-69
2022/11/04 08:27:00;;;;;;;2.77;2.63;;;;;;;;;;4991556;28;20433;-69
2022/11/04 08:29:26;;;;;;;1.47;1.37;;;;;;;;;;4990857;28;20921;-69
2022/11/04 08:31:52;;;;;;;1.43;0.73;;;;;;;;;;4989909;28;20495;-69
2022/11/04 08:34:18;;;;;;;4.80;1.13;;;;;;;;;;4988302;28;20421;-69
2022/11/04 08:36:44;;;;;;;0.80;0.80;;;;;;;;;;4991095;28;20441;-69
2022/11/04 08:39:11;;;;;;;1.90;0.70;;;;;;;;;;4990304;28;20429;-70
2022/11/04 08:41:39;;;;;;;1.63;1.50;;;;;;;;;;4990570;28;20492;-70
2022/11/04 08:44:05;;;;;;;1.67;1.20;;;;;;;;;;4988503;28;20430;-69
2022/11/04 08:46:33;;;;;;;2.57;0.80;;;;;;;;;;4990689;28;20838;-69
2022/11/04 08:48:59;;;;;;;2.03;1.30;;;;;;;;;;4990504;28;20484;-69
2022/11/04 08:51:26;;;;;;;2.83;2.67;;;;;;;;;;4990526;28;20496;-69
2022/11/04 08:53:52;;;;;;;2.23;1.93;;;;;;;;;;4990843;28;20838;-69
2022/11/04 08:56:19;;;;;;;1.50;1.17;;;;;;;;;;4989045;28;20936;-69
2022/11/04 08:58:46;;;;;;;4.00;1.07;;;;;;;;;;4989325;28;20445;-70
2022/11/04 09:01:12;;;;;;;3.10;0.87;;;;;;;;;;4988110;28;20522;-69
2022/11/04 09:03:39;;;;;;;2.63;0.60;;;;;;;;;;4989913;28;20511;-69
2022/11/04 09:06:05;;;;;;;1.13;1.00;;;;;;;;;;4990459;28;20487;-70
2022/11/04 09:08:31;;;;;;;0.67;0.67;;;;;;;;;;4988585;28;20464;-69
2022/11/04 09:10:57;;;;;;;0.73;0.73;;;;;;;;;;4988560;28;20875;-70
2022/11/04 09:13:23;;;;;;;1.30;1.00;;;;;;;;;;4988480;28;20449;-69
2022/11/04 09:15:49;;;;;;;1.30;0.70;;;;;;;;;;4989450;28;20806;-69
2022/11/04 09:18:16;;;;;;;4.37;0.77;;;;;;;;;;4989596;28;20449;-70
2022/11/04 09:20:42;;;;;;;3.90;0.83;;;;;;;;;;4989461;28;20433;-69
2022/11/04 09:23:08;;;;;;;2.97;0.70;;;;;;;;;;4986061;28;20445;-69
2022/11/04 09:25:34;;;;;;;1.03;0.50;;;;;;;;;;4990228;28;20508;-69
2022/11/04 09:28:00;;;;;;;4.83;0.97;;;;;;;;;;4985271;28;20516;-69
2022/11/04 09:30:27;;;;;;;0.93;0.83;;;;;;;;;;4989235;28;20858;-69
2022/11/04 09:32:53;;;;;;;5.40;1.60;;;;;;;;;;4990035;28;20488;-69
2022/11/04 09:35:19;;;;;;;4.73;0.70;;;;;;;;;;4988489;28;20437;-69
2022/11/04 09:37:45;;;;;;;1.20;1.07;;;;;;;;;;4989405;28;20901;-68
2022/11/04 09:40:15;;;;;;;4.60;4.17;;;;;;;;;;4989907;28;20413;-69
2022/11/04 09:42:47;;;;;;;5.00;2.20;;;;;;;;;;4989484;28;20429;-69
2022/11/04 09:45:17;;;;;;;1.30;0.90;;;;;;;;;;4990203;28;20918;-69
2022/11/04 09:47:44;;;;;;;1.93;1.03;;;;;;;;;;4984749;28;20530;-69
2022/11/04 09:50:15;;;;;;;2.67;1.17;;;;;;;;;;4990164;28;20440;-70
2022/11/04 09:52:44;;;;;;;0.77;0.60;;;;;;;;;;4989981;28;20485;-68
2022/11/04 09:55:16;;;;;;;3.20;0.80;;;;;;;;;;4987848;28;20827;-69
2022/11/04 09:57:42;;;;;;;6.63;1.00;;;;;;;;;;4986767;28;20445;-69
2022/11/04 10:00:15;;;;;;;6.17;0.83;;;;;;;;;;4989861;28;20468;-69
2022/11/04 10:02:50;;;;;;;1.40;1.30;;;;;;;;;;4989703;28;20440;-68
2022/11/04 10:05:28;;;;;;;3.07;0.80;;;;;;;;;;4988610;28;20442;-69
2022/11/04 10:08:07;;;;;;;0.70;0.70;;;;;;;;;;4989625;28;20469;-68
2022/11/04 10:10:58;;;;;;;8.03;1.10;;;;;;;;;;4987935;28;20421;-69
2022/11/04 10:13:25;;;;;;;2.90;1.07;;;;;;;;;;4986892;28;20503;-69
2022/11/04 10:15:51;;;;;;;1.23;0.70;;;;;;;;;;4990072;28;20475;-69
2022/11/04 10:18:35;;;;;;;0.73;0.73;;;;;;;;;;4988455;28;20527;-70
2022/11/04 10:21:11;;;;;;;1.07;0.97;;;;;;;;;;4989840;28;20444;-70
2022/11/04 10:23:45;;;;;;;6.53;0.70;;;;;;;;;;4987463;28;20432;-69
2022/11/04 10:26:17;;;;;;;3.40;1.13;;;;;;;;;;4989734;28;20471;-68
2022/11/04 10:28:45;;;;;;;2.50;0.80;;;;;;;;;;4987201;28;20433;-69
2022/11/04 10:31:14;;;;;;;0.97;0.80;;;;;;;;;;4989718;28;20821;-69
2022/11/04 10:33:45;;;;;;;4.87;1.10;;;;;;;;;;4989399;28;20941;-69
2022/11/04 10:36:12;;;;;;;4.73;1.10;;;;;;;;;;4986954;28;20437;-70
2022/11/04 10:38:40;;;;;;;4.20;1.30;;;;;;;;;;4976511;28;20445;-69
2022/11/04 10:41:32;;;;;;;3.17;2.80;;;;;;;;;;4979602;28;20524;-69
2022/11/04 10:44:17;;;;;;;4.43;4.10;;;;;;;;;;4979691;28;20495;-69
2022/11/04 10:46:46;;;;;;;3.00;2.90;;;;;;;;;;4988293;28;20432;-69
2022/11/04 10:49:27;;;;;;;1.40;1.30;;;;;;;;;;4982838;28;20439;-70
2022/11/04 10:51:54;;;;;;;1.60;1.50;;;;;;;;;;4988611;28;20489;-69
2022/11/04 10:54:21;;;;;;;0.80;0.80;;;;;;;;;;4990978;28;20785;-70
2022/11/04 10:56:51;;;;;;;1.63;1.50;;;;;;;;;;4992416;28;20409;-70
2022/11/04 10:59:30;;;;;;;2.10;2.10;;;;;;;;;;4991476;28;20452;-70
2022/11/04 11:01:58;;;;;;;2.93;1.13;;;;;;;;;;4991160;28;20913;-69
2022/11/04 11:04:46;;;;;;;5.83;4.00;;;;;;;;;;4991391;28;20776;-69
2022/11/04 11:07:18;;;;;;;4.60;4.20;;;;;;;;;;4991716;28;20477;-68
2022/11/04 11:09:51;;;;;;;4.90;2.67;;;;;;;;;;4991618;28;20874;-69
2022/11/04 11:12:22;;;;;;;1.63;1.50;;;;;;;;;;4991824;28;20487;-68
2022/11/04 11:14:49;;;;;;;2.77;1.47;;;;;;;;;;4991468;28;20909;-70
2022/11/04 11:17:21;;;;;;;2.40;2.20;;;;;;;;;;4992664;28;20840;-70
2022/11/04 11:19:49;;;;;;;2.67;1.67;;;;;;;;;;4992237;28;20771;-69
2022/11/04 11:22:30;;;;;;;1.80;1.70;;;;;;;;;;4992515;28;20425;-72
2022/11/04 11:25:12;;;;;;;1.30;1.30;;;;;;;;;;4989322;28;20429;-70
2022/11/04 11:27:38;;;;;;;2.47;1.30;;;;;;;;;;4992244;28;20428;-70
2022/11/04 11:30:04;;;;;;;4.30;2.63;;;;;;;;;;4992415;28;20424;-71
2022/11/04 11:32:34;;;;;;;6.53;2.50;;;;;;;;;;4992000;28;20575;-70
2022/11/04 11:35:02;;;;;;;1.13;1.13;;;;;;;;;;4989879;28;20437;-69
2022/11/04 11:37:30;;;;;;;1.60;0.70;;;;;;;;;;4990965;28;21154;-70
2022/11/04 11:39:56;;;;;;;3.43;1.10;;;;;;;;;;4992018;28;20521;-70
2022/11/04 11:42:23;;;;;;;0.80;0.80;;;;;;;;;;4991230;28;20571;-70
2022/11/04 11:44:50;;;;;;;2.20;0.90;;;;;;;;;;4989861;28;20783;-71
2022/11/04 11:47:27;;;;;;;1.43;1.10;;;;;;;;;;4991993;28;20437;-70
2022/11/04 11:50:06;;;;;;;0.90;0.90;;;;;;;;;;4991040;28;20918;-71
2022/11/04 11:52:35;;;;;;;2.23;2.13;;;;;;;;;;4991582;28;20487;-71
2022/11/04 11:55:20;;;;;;;6.50;1.80;;;;;;;;;;4991113;28;20928;-71
2022/11/04 11:57:49;;;;;;;0.80;0.80;;;;;;;;;;4991894;28;20479;-71
2022/11/04 12:00:17;;;;;;;7.00;0.87;;;;;;;;;;4986787;28;20429;-70
2022/11/04 12:02:43;;;;;;;2.13;0.90;;;;;;;;;;4987222;28;20772;-71
2022/11/04 12:05:11;;;;;;;1.50;1.50;;;;;;;;;;4987679;28;20456;-70
2022/11/04 12:07:37;;;;;;;2.63;2.20;;;;;;;;;;4991339;28;20484;-70
2022/11/04 12:10:23;;;;;;;0.90;0.90;;;;;;;;;;4981950;28;20433;-71
2022/11/04 12:13:10;;;;;;;4.13;3.00;;;;;;;;;;4984022;28;20488;-70
2022/11/04 12:15:48;;;;;;;2.63;2.47;;;;;;;;;;4989042;28;20441;-69
2022/11/04 12:18:21;;;;;;;10.07;4.73;;;;;;;;;;4989583;28;20515;-70
2022/11/04 12:20:52;;;;;;;1.87;1.83;;;;;;;;;;4991433;28;20479;-70
2022/11/04 12:23:28;;;;;;;4.00;3.03;;;;;;;;;;4986505;28;21829;-70
2022/11/04 12:26:00;;;;;;;3.17;3.07;;;;;;;;;;4983997;28;20442;-69
2022/11/04 12:28:31;;;;;;;1.43;1.40;;;;;;;;;;4986521;28;20421;-69
2022/11/04 12:30:57;;;;;;;2.10;1.33;;;;;;;;;;4990862;28;20440;-71
2022/11/04 12:33:33;;;;;;;7.80;5.57;;;;;;;;;;4991047;28;20425;-71
2022/11/04 12:36:28;;;;;;;2.00;1.57;;;;;;;;;;4989312;28;20522;-69
2022/11/04 12:39:01;;;;;;;2.13;1.63;;;;;;;;;;4984226;28;21832;-71
2022/11/04 12:41:32;;;;;;;1.33;1.10;;;;;;;;;;4983637;28;20444;-70
2022/11/04 12:44:11;;;;;;;3.73;1.07;;;;;;;;;;4984807;28;20523;-71
2022/11/04 12:46:45;;;;;;;0.50;0.50;;;;;;;;;;4988850;28;20491;-70
2022/11/04 12:49:30;;;;;;;3.00;1.57;;;;;;;;;;4989828;28;20492;-68
2022/11/04 12:51:56;;;;;;;0.73;0.73;;;;;;;;;;4985323;28;20476;-70
2022/11/04 12:54:40;;;;;;;1.57;1.10;;;;;;;;;;4985842;28;20440;-69
2022/11/04 12:57:14;;;;;;;7.43;1.10;;;;;;;;;;4985104;28;21002;-68
2022/11/04 12:59:43;;;;;;;0.80;0.80;;;;;;;;;;4984082;28;20446;-70
2022/11/04 13:02:34;;;;;;;4.20;1.20;;;;;;;;;;4984622;28;20448;-70
2022/11/04 13:05:06;;;;;;;3.30;2.00;;;;;;;;;;4984404;28;20440;-70
2022/11/04 13:07:39;;;;;;;1.27;1.27;;;;;;;;;;4989062;28;20842;-67
2022/11/04 13:10:34;;;;;;;1.57;1.00;;;;;;;;;;4987395;28;21114;-69
2022/11/04 13:13:01;;;;;;;2.67;0.70;;;;;;;;;;4990230;28;20488;-71
2022/11/04 13:15:28;;;;;;;1.83;0.90;;;;;;;;;;4987581;28;20444;-69
2022/11/04 13:17:58;;;;;;;0.83;0.83;;;;;;;;;;4989644;28;20440;-70
2022/11/04 13:20:34;;;;;;;0.80;0.80;;;;;;;;;;4987374;28;20439;-70
2022/11/04 13:23:02;;;;;;;2.30;0.70;;;;;;;;;;4988738;28;20436;-69
2022/11/04 13:25:30;;;;;;;1.07;0.97;;;;;;;;;;4989076;28;20925;-69
2022/11/04 13:27:57;;;;;;;1.17;0.57;;;;;;;;;;4987848;28;20437;-71
2022/11/04 13:30:29;;;;;;;1.20;0.63;;;;;;;;;;4989078;28;20453;-71
2022/11/04 13:33:07;;;;;;;0.97;0.97;;;;;;;;;;4987907;28;20503;-70
2022/11/04 13:35:42;;;;;;;0.47;0.47;;;;;;;;;;4986642;28;20511;-70
2022/11/04 13:38:12;;;;;;;4.40;1.33;;;;;;;;;;4984388;28;20440;-69
2022/11/04 13:40:53;;;;;;;1.37;1.10;;;;;;;;;;4982203;28;20433;-70
2022/11/04 13:43:38;;;;;;;2.40;0.60;;;;;;;;;;4983991;28;20895;-70
2022/11/04 13:46:10;;;;;;;0.77;0.77;;;;;;;;;;4981269;28;20464;-69
2022/11/04 13:48:38;;;;;;;1.10;1.10;;;;;;;;;;4981364;28;20441;-70
2022/11/04 13:51:07;;;;;;;0.73;0.67;;;;;;;;;;4989401;28;20441;-70
2022/11/04 13:53:40;;;;;;;0.77;0.77;;;;;;;;;;4986483;28;20532;-69
2022/11/04 13:56:06;;;;;;;0.70;0.70;;;;;;;;;;4985447;28;20437;-70
2022/11/04 13:58:32;;;;;;;2.57;1.00;;;;;;;;;;4987635;28;20535;-70
2022/11/04 14:01:11;;;;;;;3.23;0.80;;;;;;;;;;4986300;28;20445;-70
2022/11/04 14:03:37;;;;;;;1.70;0.87;;;;;;;;;;4988926;28;20966;-71
2022/11/04 14:06:04;;;;;;;0.57;0.50;;;;;;;;;;4989083;28;20433;-71
2022/11/04 14:08:31;;;;;;;1.00;0.50;;;;;;;;;;4986124;28;20433;-69
2022/11/04 14:10:58;;;;;;;5.30;1.60;;;;;;;;;;4987764;28;20441;-70
2022/11/04 14:13:32;;;;;;;0.90;0.90;;;;;;;;;;4987793;28;20532;-70
2022/11/04 14:15:58;;;;;;;5.30;0.70;;;;;;;;;;4985969;28;20425;-70
2022/11/04 14:18:43;;;;;;;0.80;0.80;;;;;;;;;;4985102;28;20943;-69
2022/11/04 14:21:11;;;;;;;1.77;1.03;;;;;;;;;;4988241;28;20453;-70
2022/11/04 14:23:38;;;;;;;1.23;0.50;;;;;;;;;;4984881;28;20455;-71
2022/11/04 14:26:06;;;;;;;2.53;1.10;;;;;;;;;;4989626;28;20536;-69
2022/11/04 14:28:32;;;;;;;7.33;2.20;;;;;;;;;;4993431;28;20432;-70
2022/11/04 14:31:00;;;;;;;0.87;0.87;;;;;;;;;;4993667;28;20479;-71
2022/11/04 14:33:40;;;;;;;1.47;0.90;;;;;;;;;;4993355;28;21702;-70
2022/11/04 14:36:14;;;;;;;5.93;2.70;;;;;;;;;;4993601;28;20932;-71
2022/11/04 14:38:40;;;;;;;8.07;1.30;;;;;;;;;;4991355;28;20441;-71
2022/11/04 14:41:21;;;;;;;2.27;2.00;;;;;;;;;;4989546;28;20472;-71
2022/11/04 14:43:47;;;;;;;2.47;1.27;;;;;;;;;;4993126;28;21008;-71
2022/11/04 14:46:22;;;;;;;1.03;0.70;;;;;;;;;;4992385;28;20519;-69
2022/11/04 14:48:51;;;;;;;0.93;0.90;;;;;;;;;;4992772;28;20421;-70
2022/11/04 14:51:23;;;;;;;1.10;1.10;;;;;;;;;;4991771;28;20995;-70
2022/11/04 14:53:50;;;;;;;2.50;2.30;;;;;;;;;;4992751;28;20952;-69
2022/11/04 14:56:19;;;;;;;2.53;1.97;;;;;;;;;;4993236;28;20472;-70
2022/11/04 14:59:08;;;;;;;2.10;1.40;;;;;;;;;;4992979;28;20437;-69
2022/11/04 15:01:37;;;;;;;1.70;1.53;;;;;;;;;;4994682;28;20523;-70
2022/11/04 15:04:05;;;;;;;6.90;1.50;;;;;;;;;;4991660;28;20437;-70
2022/11/04 15:06:31;;;;;;;1.70;1.47;;;;;;;;;;4992897;28;20465;-69
2022/11/04 15:08:57;;;;;;;4.23;1.20;;;;;;;;;;4990811;28;20463;-70
2022/11/04 15:14:30;;;;;;;5.43;2.60;;;;;;;;;;4992026;28;20431;-70
2022/11/04 15:16:57;;;;;;;4.90;2.90;;;;;;;;;;4984926;28;20420;-70
2022/11/04 15:19:34;;;;;;;8.37;4.20;;;;;;;;;;4988884;28;20786;-69
2022/11/04 15:22:01;;;;;;;13.90;7.77;;;;;;;;;;4992842;28;20504;-70
2022/11/04 15:24:28;;;;;;;15.23;7.70;;;;;;;;;;4992175;28;20520;-70
2022/11/04 15:26:57;;;;;;;11.40;6.93;;;;;;;;;;4992367;28;20425;-71
2022/11/04 15:29:23;;;;;;;15.20;10.00;;;;;;;;;;4990044;28;20452;-70
2022/11/04 15:31:57;;;;;;;2.40;2.20;;;;;;;;;;4992164;28;20484;-70